Airfield :







YOU CAN JOIN US ON...

 
LOGIN :

Register | Disclaimer

   EN    FR    IT 

 









Legend :    VFR   Marginal VFR   IFR   Intensive IFR   Very Intensive IFR
Visi :
Ceiling :
>= 8 km
>= 3000ft
5 to 8 km
1000 to 3000 ft
1500m to 5 km
500 to 1000 ft
800 to 1500m
200 to 500 ft
< 800m
< 200 ft
Symbols :   Thunderstorms  Fog  Heavy snow  Heavy precipitations  Wind > 20 kt







- Airport Elevation : 1808 ft
- IATA code : YWK


CYWK - Wabush

CURRENT METAR :
  • 201700Z 35011G17KT 15SM FEW040 FEW250 15/05 A2993 RMK CU1CI1 SLP142 DENSITY ALT 2300FT

EXPIRED METARs :
  • 201600Z 35010G20KT 15SM SCT026 14/06 A2991 RMK CU3 SLP138 DENSITY ALT 2200FT
  • 201500Z 34011G17KT 15SM SCT018 BKN024 14/08 A2989 RMK CU4SC2 SLP129 DENSITY ALT 2200FT

TAF TAF CYWK
Valid from the 20 at 14:00 until the 21 at 02:00 UTC


201338Z 2014/2102 28012KT P6SM -RA SCT012 OVC025
TEMPO 2014/2016 4SM -RA BR OVC012
BECMG 2014/2016 28015G25KT
FM201600 32012G22KT P6SM SCT025
TEMPO 2016/2018 BKN025
FM210000 32012KT P6SM FEW020
TEMPO 2100/2102 BKN020 RMK NXT FCST BY 202000Z
No reported NOTAMs for that airfield.



MET'MAP, your aeronautical weather chart ! - Copyright ORBIFLY December 2007 - Disclaimer

ORBIFLY MET'MAP TEAM :

Programming & Development : Alexandra Zaïnal
Concept & Development : Baudouin d'Aumeries
Co-Development & Prog : Marc-Olivier Méhu
Technical & hardware support : Manuel Goepfert

Contact : metmap@orbifly.com




SOURCES & CREDITS :

   NOAA